No particular awareness of the weather is required.    There are no Weather-warnings


Meteo18 Weather Cam more information Meteo18 Weather Cam


Thunder radar more information blitzortung!


Rain radar more information rain snow radar


Visit our other weather sites:

Template documentation
and downloads

And another site



Weather Underground History page Text

Daily Summary for September 21, 2017 Units:  English    Metric   Both
« Previous Day
Next Day »
Daily Weekly Monthly Yearly Custom
  High: Low: Average:
Temperature: TemperatureC °F 6.7 °F 13.3 °F
Dew Point: DewpointC °F 6.0 °F 8.5 °F
Humidity: Humidity % 39 % 76 %
Wind Speed: WindSpeedKMH mph 0.0 mph 0.9 mph
Wind Gust: WindSpeedGustKMH mph - -
Wind:- - SSE
Pressure: PressurehPa in 1017.8 in -
Precipitation: 0.3 in    
Historical Graphs
 
 
Tabular Data for September 21, 2017
Time Temperature Dew Point Pressure Wind Wind Speed Wind Gust Humidity Rainfall Rate (Hourly)
TemperatureC °F DewpointC °F PressurehPa in Calm     Humidity % HourlyPrecipMM in
00:02 8.6 °F 7.4 °F 1021.6 in Calm     92 % 0.0 in
00:12 8.4 °F 7.3 °F 1021.6 in Calm     93 % 0.0 in
00:17 8.4 °F 7.3 °F 1021.6 in Calm     93 % 0.0 in
00:22 8.3 °F 7.2 °F 1021.6 in Calm     93 % 0.0 in
00:27 8.3 °F 7.2 °F 1021.6 in Calm     93 % 0.0 in
00:32 8.3 °F 7.2 °F 1021.6 in Calm     93 % 0.0 in
00:37 8.4 °F 7.3 °F 1021.6 in Calm     93 % 0.0 in
00:42 8.3 °F 7.1 °F 1021.6 in Calm     92 % 0.0 in
00:52 8.2 °F 7.1 °F 1021.6 in Calm     93 % 0.0 in
00:57 8.2 °F 7.1 °F 1021.6 in Calm     93 % 0.0 in
01:02 8.2 °F 7.1 °F 1021.6 in Calm     93 % 0.0 in
01:12 8.2 °F 7.1 °F 1021.6 in Calm     93 % 0.0 in
01:17 8.2 °F 7.1 °F 1021.2 in Calm     93 % 0.0 in
01:22 8.2 °F 7.1 °F 1021.2 in Calm     93 % 0.0 in
01:32 8.1 °F 7.0 °F 1021.2 in Calm     93 % 0.0 in
01:37 8.1 °F 7.0 °F 1021.2 in Calm     93 % 0.0 in
01:42 7.9 °F 6.8 °F 1021.2 in Calm     93 % 0.0 in
01:47 7.9 °F 6.8 °F 1021.2 in Calm     93 % 0.0 in
01:52 7.9 °F 6.8 °F 1021.2 in Calm     93 % 0.0 in
01:57 7.9 °F 6.8 °F 1021.2 in Calm     93 % 0.0 in
02:02 7.9 °F 7.0 °F 1021.2 in Calm     94 % 0.0 in
02:07 8.1 °F 7.2 °F 1021.2 in Calm     94 % 0.0 in
02:12 8.0 °F 6.9 °F 1021.2 in Calm     93 % 0.0 in
02:17 7.8 °F 6.7 °F 1021.2 in Calm     93 % 0.0 in
02:22 7.7 °F 6.6 °F 1021.2 in Calm     93 % 0.0 in
02:32 7.7 °F 6.8 °F 1021.2 in Calm     94 % 0.0 in
02:42 7.5 °F 6.4 °F 1021.2 in Calm     93 % 0.0 in
02:47 7.3 °F 6.4 °F 1021.2 in Calm     94 % 0.0 in
02:52 7.3 °F 6.4 °F 1021.2 in Calm     94 % 0.0 in
03:02 7.3 °F 6.4 °F 1020.9 in Calm     94 % 0.0 in
03:12 7.5 °F 6.8 °F 1020.9 in Calm     95 % 0.0 in
03:22 7.6 °F 6.9 °F 1020.9 in Calm     95 % 0.0 in
03:32 7.6 °F 6.9 °F 1020.9 in Calm     95 % 0.0 in
03:42 7.8 °F 7.0 °F 1020.9 in Calm     95 % 0.0 in
03:52 7.3 °F 6.4 °F 1020.9 in Calm     94 % 0.0 in
03:57 7.2 °F 6.5 °F 1020.9 in Calm     95 % 0.0 in
04:02 7.2 °F 6.5 °F 1020.9 in Calm     95 % 0.0 in
04:12 7.3 °F 6.6 °F 1020.5 in Calm     95 % 0.0 in
04:17 7.4 °F 6.7 °F 1020.5 in Calm     95 % 0.0 in
04:22 7.3 °F 6.6 °F 1020.5 in Calm     95 % 0.0 in
04:27 7.2 °F 6.5 °F 1020.5 in Calm     95 % 0.0 in
04:32 7.2 °F 6.5 °F 1020.5 in Calm     95 % 0.0 in
04:42 7.0 °F 6.3 °F 1020.5 in Calm     95 % 0.0 in
04:52 7.0 °F 6.3 °F 1020.5 in Calm     95 % 0.0 in
05:02 7.2 °F 6.6 °F 1020.2 in Calm     96 % 0.0 in
05:12 7.1 °F 6.4 °F 1020.2 in Calm     95 % 0.0 in
05:22 7.0 °F 6.3 °F 1020.2 in Calm     95 % 0.0 in
05:32 6.8 °F 6.1 °F 1020.2 in Calm     95 % 0.0 in
05:42 6.8 °F 6.1 °F 1020.2 in Calm     95 % 0.0 in
05:52 7.1 °F 6.5 °F 1020.2 in Calm     96 % 0.0 in
05:57 7.2 °F 6.6 °F 1019.9 in Calm     96 % 0.0 in
06:02 7.1 °F 6.4 °F 1019.9 in Calm     95 % 0.0 in
06:12 7.1 °F 6.5 °F 1019.9 in Calm     96 % 0.3 in
06:17 7.1 °F 6.5 °F 1019.9 in Calm     96 % 0.3 in
06:22 7.1 °F 6.4 °F 1019.9 in Calm     95 % 0.3 in
06:32 7.1 °F 6.4 °F 1019.9 in Calm     95 % 0.3 in
06:42 7.1 °F 6.5 °F 1019.9 in Calm     96 % 0.3 in
06:52 6.9 °F 6.2 °F 1019.9 in Calm     95 % 0.3 in
06:57 6.8 °F 6.1 °F 1019.9 in Calm     95 % 0.3 in
07:02 6.8 °F 6.1 °F 1019.9 in Calm     95 % 0.3 in
07:12 6.8 °F 6.1 °F 1019.9 in Calm     95 % 0.0 in
07:17 6.8 °F 6.2 °F 1019.9 in Calm     96 % 0.0 in
07:22 6.8 °F 6.1 °F 1019.9 in Calm     95 % 0.0 in
07:27 6.9 °F 6.3 °F 1019.9 in Calm     96 % 0.0 in
07:32 6.8 °F 6.1 °F 1019.9 in Calm     95 % 0.0 in
07:42 6.7 °F 6.0 °F 1019.9 in Calm     95 % 0.0 in
07:52 6.7 °F 6.0 °F 1019.9 in Calm     95 % 0.0 in
08:02 6.9 °F 6.2 °F 1019.9 in Calm     95 % 0.0 in
08:12 6.9 °F 6.2 °F 1019.9 in Calm     95 % 0.0 in
08:17 6.9 °F 6.2 °F 1019.9 in Calm     95 % 0.0 in
08:22 7.2 °F 6.5 °F 1019.9 in Calm     95 % 0.0 in
08:32 7.3 °F 6.6 °F 1020.2 in Calm     95 % 0.0 in
08:42 7.8 °F 7.0 °F 1020.2 in Calm     95 % 0.0 in
08:52 8.4 °F 7.6 °F 1020.2 in Calm     95 % 0.0 in
08:57 8.7 °F 7.9 °F 1020.2 in Calm     95 % 0.0 in
09:02 8.9 °F 8.1 °F 1020.2 in Calm     95 % 0.0 in
09:12 9.5 °F 8.6 °F 1020.2 in Calm     94 % 0.0 in
09:17 9.6 °F 8.5 °F 1020.2 in Calm     93 % 0.0 in
09:22 9.8 °F 8.4 °F 1020.2 in Calm     91 % 0.0 in
09:32 10.3 °F 8.6 °F 1019.9 in Calm     89 % 0.0 in
09:42 10.8 °F 8.9 °F 1019.9 in SE 3.2 mph   88 % 0.0 in
09:47 11.0 °F 8.9 °F 1019.9 in Calm   6.4 mph 87 % 0.0 in
09:52 11.3 °F 9.2 °F 1020.2 in SE 1.6 mph 6.4 mph 87 % 0.0 in
10:02 11.6 °F 9.2 °F 1020.2 in Calm   6.4 mph 85 % 0.0 in
10:12 12.1 °F 9.5 °F 1020.2 in Calm   8.0 mph 84 % 0.0 in
10:17 12.3 °F 9.3 °F 1020.2 in Calm   6.4 mph 82 % 0.0 in
10:22 12.3 °F 9.1 °F 1020.2 in Calm   6.4 mph 81 % 0.0 in
10:32 12.7 °F 9.9 °F 1020.2 in ESE 1.6 mph 9.7 mph 83 % 0.0 in
10:42 13.5 °F 10.3 °F 1019.9 in ENE 1.6 mph 6.4 mph 81 % 0.0 in
10:52 13.8 °F 10.4 °F 1019.9 in East 3.2 mph 8.0 mph 80 % 0.0 in
11:02 14.2 °F 10.2 °F 1019.9 in SW 1.6 mph 6.4 mph 77 % 0.0 in
11:12 14.6 °F 10.6 °F 1019.9 in ESE 1.6 mph 11.3 mph 77 % 0.0 in
11:22 15.1 °F 10.5 °F 1019.9 in East 3.2 mph 9.7 mph 74 % 0.0 in
11:32 15.4 °F 10.6 °F 1019.9 in South 1.6 mph 9.7 mph 73 % 0.0 in
11:37 15.6 °F 10.8 °F 1019.9 in ESE 1.6 mph 8.0 mph 73 % 0.0 in
11:42 15.8 °F 11.0 °F 1019.9 in ESE 1.6 mph 8.0 mph 73 % 0.0 in
11:52 16.4 °F 10.7 °F 1019.9 in East 3.2 mph 9.7 mph 69 % 0.0 in
12:02 16.6 °F 10.4 °F 1019.9 in SE 4.8 mph 9.7 mph 67 % 0.0 in
12:12 17.2 °F 10.3 °F 1019.9 in SW 3.2 mph 12.9 mph 64 % 0.0 in
12:17 17.5 °F 10.6 °F 1019.5 in SE 6.4 mph 11.3 mph 64 % 0.0 in
12:22 17.7 °F 10.3 °F 1019.5 in East 1.6 mph 11.3 mph 62 % 0.0 in
12:32 17.9 °F 10.0 °F 1019.5 in Calm   9.7 mph 60 % 0.0 in
12:42 18.2 °F 9.5 °F 1019.5 in ESE 4.8 mph 11.3 mph 57 % 0.0 in
12:52 18.2 °F 9.5 °F 1019.5 in ESE 3.2 mph 12.9 mph 57 % 0.0 in
12:57 18.3 °F 9.4 °F 1019.5 in NE 3.2 mph 14.5 mph 56 % 0.0 in
13:02 18.2 °F 9.0 °F 1019.5 in SE 4.8 mph 14.5 mph 55 % 0.0 in
13:12 18.1 °F 9.4 °F 1019.5 in SE 1.6 mph 14.5 mph 57 % 0.0 in
13:17 18.5 °F 10.1 °F 1019.2 in ENE 3.2 mph 12.9 mph 58 % 0.0 in
13:22 18.6 °F 9.6 °F 1019.2 in Calm   12.9 mph 56 % 0.0 in
13:32 19.0 °F 10.0 °F 1019.2 in South 1.6 mph 12.9 mph 56 % 0.0 in
13:42 19.2 °F 9.7 °F 1019.2 in Calm   11.3 mph 54 % 0.0 in
13:52 19.3 °F 9.2 °F 1019.2 in SSW 6.4 mph 11.3 mph 52 % 0.0 in
13:57 19.2 °F 9.7 °F 1019.2 in SE 8.0 mph 16.1 mph 54 % 0.0 in
14:02 18.7 °F 9.2 °F 1018.8 in ESE 1.6 mph 16.1 mph 54 % 0.0 in
14:12 18.7 °F 8.9 °F 1018.8 in ESE 6.4 mph 12.9 mph 53 % 0.0 in
14:17 18.9 °F 10.2 °F 1018.8 in SE 4.8 mph 11.3 mph 57 % 0.0 in
14:22 19.4 °F 10.1 °F 1018.8 in SSW 1.6 mph 11.3 mph 55 % 0.0 in
14:32 19.6 °F 9.5 °F 1018.8 in WSW 4.8 mph 9.7 mph 52 % 0.0 in
14:37 19.6 °F 9.8 °F 1018.8 in East 1.6 mph 11.3 mph 53 % 0.0 in
14:42 19.7 °F 9.9 °F 1018.8 in SSE 4.8 mph 11.3 mph 53 % 0.0 in
14:52 19.8 °F 9.4 °F 1018.5 in Calm   11.3 mph 51 % 0.0 in
14:57 20.1 °F 10.2 °F 1018.5 in ESE 1.6 mph 12.9 mph 53 % 0.0 in
15:02 20.2 °F 10.3 °F 1018.5 in Calm   12.9 mph 53 % 0.0 in
15:12 20.2 °F 10.0 °F 1018.5 in SE 6.4 mph 9.7 mph 52 % 0.0 in
15:17 20.2 °F 10.0 °F 1018.5 in SE 3.2 mph 9.7 mph 52 % 0.0 in
15:22 20.5 °F 10.3 °F 1018.5 in SSW 9.7 mph 9.7 mph 52 % 0.0 in
15:27 20.4 °F 8.7 °F 1018.5 in SSE 3.2 mph 12.9 mph 47 % 0.0 in
15:32 20.3 °F 8.6 °F 1018.5 in SSW 3.2 mph 12.9 mph 47 % 0.0 in
15:42 20.6 °F 8.9 °F 1018.5 in WSW 3.2 mph 9.7 mph 47 % 0.0 in
15:52 20.8 °F 8.8 °F 1018.5 in Calm   9.7 mph 46 % 0.0 in
16:02 20.7 °F 8.3 °F 1018.2 in South 1.6 mph 8.0 mph 45 % 0.0 in
16:12 21.2 °F 9.1 °F 1018.2 in ESE 1.6 mph 11.3 mph 46 % 0.0 in
16:17 21.0 °F 8.9 °F 1018.2 in Calm   8.0 mph 46 % 0.0 in
16:22 20.8 °F 9.4 °F 1018.2 in Calm   8.0 mph 48 % 0.0 in
16:32 20.8 °F 9.7 °F 1018.2 in SSE 3.2 mph 8.0 mph 49 % 0.0 in
16:42 21.0 °F 9.3 °F 1018.2 in SW 4.8 mph 9.7 mph 47 % 0.0 in
16:47 21.1 °F 9.7 °F 1017.8 in Calm   8.0 mph 48 % 0.0 in
16:52 21.3 °F 9.8 °F 1017.8 in SW 4.8 mph 8.0 mph 48 % 0.0 in
16:57 21.3 °F 9.5 °F 1017.8 in Calm   11.3 mph 47 % 0.0 in
17:02 21.4 °F 9.3 °F 1017.8 in South 3.2 mph 11.3 mph 46 % 0.0 in
17:12 21.4 °F 9.3 °F 1017.8 in Calm   9.7 mph 46 % 0.0 in
17:17 21.4 °F 9.0 °F 1017.8 in South 3.2 mph 4.8 mph 45 % 0.0 in
17:22 21.7 °F 8.9 °F 1017.8 in SE 1.6 mph 4.8 mph 44 % 0.0 in
17:32 21.7 °F 8.9 °F 1017.8 in Calm   6.4 mph 44 % 0.0 in
17:42 21.9 °F 8.8 °F 1017.8 in South 3.2 mph 4.8 mph 43 % 0.0 in
17:52 21.7 °F 8.6 °F 1017.8 in ESE 1.6 mph 11.3 mph 43 % 0.0 in
17:57 21.7 °F 9.6 °F 1017.8 in Calm   11.3 mph 46 % 0.0 in
18:02 21.9 °F 9.8 °F 1017.8 in Calm   11.3 mph 46 % 0.0 in
18:07 21.8 °F 8.0 °F 1018.2 in SSW 1.6 mph 6.4 mph 41 % 0.0 in
18:12 21.9 °F 9.1 °F 1018.2 in Calm   6.4 mph 44 % 0.0 in
18:17 21.7 °F 7.1 °F 1018.2 in SSW 4.8 mph 4.8 mph 39 % 0.0 in
18:22 21.4 °F 7.6 °F 1018.2 in SW 1.6 mph 6.4 mph 41 % 0.0 in
18:32 21.2 °F 7.4 °F 1018.2 in WSW 4.8 mph 9.7 mph 41 % 0.0 in
18:37 21.1 °F 7.7 °F 1018.2 in SW 4.8 mph 9.7 mph 42 % 0.0 in
18:42 21.1 °F 7.7 °F 1018.2 in SW 1.6 mph 8.0 mph 42 % 0.0 in
18:47 21.1 °F 8.0 °F 1018.5 in Calm   6.4 mph 43 % 0.0 in
18:52 21.1 °F 8.4 °F 1018.2 in Calm   6.4 mph 44 % 0.0 in
18:57 21.2 °F 8.8 °F 1018.2 in West 1.6 mph 4.8 mph 45 % 0.0 in
19:02 21.2 °F 8.8 °F 1018.5 in Calm   4.8 mph 45 % 0.0 in
19:12 20.8 °F 10.0 °F 1018.5 in Calm   3.2 mph 50 % 0.0 in
19:17 20.1 °F 10.8 °F 1018.5 in Calm   1.6 mph 55 % 0.0 in
19:22 19.4 °F 10.4 °F 1018.5 in Calm   1.6 mph 56 % 0.0 in
19:32 18.3 °F 10.6 °F 1018.5 in Calm   1.6 mph 61 % 0.0 in
19:42 17.7 °F 10.6 °F 1018.5 in Calm     63 % 0.0 in
19:52 17.4 °F 10.0 °F 1018.8 in Calm     62 % 0.0 in
19:57 17.2 °F 9.9 °F 1018.8 in Calm     62 % 0.0 in
20:02 16.9 °F 9.8 °F 1018.8 in Calm     63 % 0.0 in
20:12 16.3 °F 9.7 °F 1018.8 in Calm     65 % 0.0 in
20:17 16.2 °F 10.3 °F 1018.8 in Calm     68 % 0.0 in
20:22 16.0 °F 9.7 °F 1018.8 in Calm     66 % 0.0 in
20:32 15.8 °F 10.6 °F 1019.2 in Calm     71 % 0.0 in
20:42 15.3 °F 10.7 °F 1019.2 in Calm     74 % 0.0 in
20:47 15.2 °F 10.8 °F 1019.2 in Calm     75 % 0.0 in
20:57 15.1 °F 10.9 °F 1019.2 in Calm     76 % 0.0 in
21:07 14.4 °F 10.6 °F 1019.5 in Calm     78 % 0.0 in
21:12 14.0 °F 10.8 °F 1019.5 in WNW 3.2 mph   81 % 0.0 in
21:17 13.7 °F 10.7 °F 1019.5 in Calm   3.2 mph 82 % 0.0 in
21:27 13.5 °F 10.7 °F 1019.5 in Calm   3.2 mph 83 % 0.0 in
21:32 13.4 °F 10.6 °F 1019.5 in WNW 1.6 mph 3.2 mph 83 % 0.0 in
21:37 13.2 °F 10.4 °F 1019.5 in Calm   1.6 mph 83 % 0.0 in
21:42 13.2 °F 10.4 °F 1019.5 in Calm   1.6 mph 83 % 0.0 in
21:47 13.1 °F 10.3 °F 1019.5 in Calm   1.6 mph 83 % 0.0 in
21:57 12.8 °F 10.2 °F 1019.9 in Calm   1.6 mph 84 % 0.0 in
22:02 12.7 °F 10.2 °F 1019.5 in Calm   1.6 mph 85 % 0.0 in
22:12 12.7 °F 10.2 °F 1019.5 in Calm   1.6 mph 85 % 0.0 in
22:22 12.6 °F 10.1 °F 1019.9 in Calm   1.6 mph 85 % 0.0 in
22:32 12.4 °F 9.9 °F 1019.9 in Calm   1.6 mph 85 % 0.0 in
22:37 12.2 °F 9.9 °F 1019.9 in Calm   1.6 mph 86 % 0.0 in
22:47 12.1 °F 10.2 °F 1019.9 in Calm   1.6 mph 88 % 0.0 in
22:52 12.2 °F 10.1 °F 1019.9 in Calm   1.6 mph 87 % 0.0 in
22:57 12.1 °F 10.0 °F 1019.9 in Calm   1.6 mph 87 % 0.0 in
23:02 11.9 °F 9.8 °F 1019.9 in Calm   1.6 mph 87 % 0.0 in
23:12 11.5 °F 9.6 °F 1019.9 in Calm     88 % 0.0 in
23:17 11.4 °F 9.7 °F 1019.9 in Calm     89 % 0.0 in
23:22 11.4 °F 9.7 °F 1019.9 in Calm     89 % 0.0 in
23:32 11.4 °F 9.7 °F 1019.9 in Calm     89 % 0.0 in
23:42 11.2 °F 9.5 °F 1019.9 in Calm     89 % 0.0 in
23:47 11.2 °F 9.6 °F 1019.9 in Calm     90 % 0.0 in
23:52 11.2 °F 9.6 °F 1019.9 in Calm     90 % 0.0 in
Meteo18
Compliments of Weather Underground - 4 mb

Script developed by  Jim McMurry - jmcmurry@mwt.net Adapted for the template by  Wim van der Kuil - Leuven-Template.eu

You find our weather info also at:

European Weather Network

Weather Underground

Equipment we use:

Weather-station
Davis Vue

Weather-program
Meteobridge

Weather-server
Raspberry PI 2 B+

Provider
1 and 1

Davis Vue

Meteobridge

Raspberry PI 2 B+

1 and 1